createdAt,value
2022-11-22T00:01:09.233Z,20.67
2022-11-22T00:06:17.641Z,18.47
2022-11-22T00:11:25.357Z,17.67
2022-11-22T00:16:35.079Z,19.20
2022-11-22T00:21:42.731Z,17.83
2022-11-22T00:26:50.755Z,16.77
2022-11-22T00:31:59.326Z,14.77
2022-11-22T00:37:07.876Z,15.53
2022-11-22T00:42:15.531Z,15.67
2022-11-22T00:47:23.538Z,14.70
2022-11-22T00:52:31.965Z,14.53
2022-11-22T00:57:40.197Z,13.43
2022-11-22T01:02:48.360Z,15.40
2022-11-22T01:07:56.726Z,13.50
2022-11-22T01:13:05.345Z,13.50
2022-11-22T01:18:13.261Z,14.47
2022-11-22T01:23:21.924Z,13.27
2022-11-22T01:28:29.410Z,14.90
2022-11-22T01:33:36.847Z,13.90
2022-11-22T01:38:45.635Z,15.73
2022-11-22T01:43:53.632Z,16.27
2022-11-22T01:49:05.991Z,15.97
2022-11-22T01:54:17.200Z,18.17
2022-11-22T01:59:27.054Z,18.83
2022-11-22T02:04:34.976Z,21.50
2022-11-22T02:09:42.440Z,19.37
2022-11-22T02:14:51.933Z,20.90
2022-11-22T02:20:00.364Z,19.07
2022-11-22T02:25:29.728Z,17.77
2022-11-22T02:30:39.304Z,17.93
2022-11-22T02:35:53.329Z,18.03
2022-11-22T02:41:06.793Z,16.23
2022-11-22T02:46:21.669Z,13.83
2022-11-22T02:51:29.802Z,15.67
2022-11-22T02:56:37.452Z,18.20
2022-11-22T03:01:45.716Z,16.20
2022-11-22T03:06:57.798Z,15.83
2022-11-22T03:12:05.677Z,15.23
2022-11-22T03:17:14.398Z,16.80
2022-11-22T03:22:22.397Z,18.27
2022-11-22T03:27:30.066Z,19.40
2022-11-22T03:32:37.809Z,16.97
2022-11-22T03:37:45.885Z,20.20
2022-11-22T03:42:54.028Z,17.07
2022-11-22T03:48:02.303Z,16.87
2022-11-22T03:53:10.062Z,14.37
2022-11-22T03:58:17.727Z,18.47
2022-11-22T04:03:25.179Z,15.73
2022-11-22T04:08:33.599Z,14.80
2022-11-22T04:13:58.597Z,17.93
2022-11-22T04:19:06.281Z,18.00
2022-11-22T04:24:31.947Z,17.53
2022-11-22T04:29:39.606Z,17.77
2022-11-22T04:34:46.925Z,20.77
2022-11-22T04:39:54.644Z,15.43
2022-11-22T04:45:02.909Z,18.53
2022-11-22T04:50:28.439Z,18.30
2022-11-22T04:55:36.306Z,20.83
2022-11-22T05:00:44.368Z,21.17
2022-11-22T05:05:52.597Z,17.13
2022-11-22T05:11:00.877Z,20.27
2022-11-22T05:16:10.206Z,19.33
2022-11-22T05:21:17.619Z,17.30
2022-11-22T05:26:32.755Z,18.90
2022-11-22T05:31:44.734Z,21.63
2022-11-22T05:36:52.425Z,21.83
2022-11-22T05:42:00.494Z,21.20
2022-11-22T05:47:09.911Z,20.27
2022-11-22T05:52:17.627Z,18.07
2022-11-22T05:57:25.649Z,16.47
2022-11-22T06:02:33.638Z,15.73
2022-11-22T06:07:41.450Z,16.10
2022-11-22T06:12:51.435Z,17.53
2022-11-22T06:17:58.827Z,16.60
2022-11-22T06:23:06.491Z,17.50
2022-11-22T06:28:15.520Z,15.07
2022-11-22T06:33:23.357Z,16.30
2022-11-22T06:38:31.459Z,15.37
2022-11-22T06:43:45.117Z,19.00
2022-11-22T06:48:50.836Z,16.57
2022-11-22T06:53:58.959Z,16.93
2022-11-22T06:59:08.182Z,16.43
2022-11-22T07:04:16.338Z,15.30
2022-11-22T07:09:24.619Z,17.33
2022-11-22T07:14:32.400Z,17.27
2022-11-22T07:19:40.004Z,16.27
2022-11-22T07:24:47.653Z,18.07
2022-11-22T07:29:55.358Z,17.83
2022-11-22T07:35:03.184Z,17.40
2022-11-22T07:40:12.438Z,17.30
2022-11-22T07:45:20.258Z,17.93
2022-11-22T07:50:29.007Z,19.10
2022-11-22T07:55:36.989Z,18.73
2022-11-22T08:00:44.598Z,20.13
2022-11-22T08:05:52.194Z,20.20
2022-11-22T08:10:59.840Z,20.67
2022-11-22T08:16:09.580Z,19.93
2022-11-22T08:21:18.731Z,20.00
2022-11-22T08:26:26.774Z,19.33
2022-11-22T08:31:45.144Z,17.40
2022-11-22T08:36:57.557Z,19.03
2022-11-22T08:42:07.211Z,19.97
2022-11-22T08:47:16.507Z,20.00
2022-11-22T08:52:25.032Z,19.13
2022-11-22T08:57:33.404Z,17.00
2022-11-22T09:02:41.079Z,20.30
2022-11-22T09:12:58.170Z,20.87
2022-11-22T09:18:06.463Z,16.87
2022-11-22T09:23:14.179Z,17.20
2022-11-22T09:28:21.805Z,15.47
2022-11-22T09:33:30.195Z,18.87
2022-11-22T09:38:38.602Z,16.80
2022-11-22T09:44:13.449Z,18.80
2022-11-22T09:49:29.614Z,15.60
2022-11-22T09:54:56.635Z,18.50
2022-11-22T10:00:21.582Z,17.17
2022-11-22T10:05:38.584Z,17.20
2022-11-22T10:10:46.265Z,17.65
2022-11-22T10:16:16.354Z,16.53
2022-11-22T10:21:24.036Z,17.80
2022-11-22T10:26:36.162Z,18.07
2022-11-22T10:31:56.946Z,17.07
2022-11-22T10:37:17.448Z,16.27
2022-11-22T10:42:33.898Z,19.03
2022-11-22T10:47:47.579Z,18.27
2022-11-22T10:53:11.504Z,17.53
2022-11-22T10:58:48.292Z,17.67
2022-11-22T11:03:57.815Z,16.43
2022-11-22T11:10:09.302Z,15.77
2022-11-22T11:14:35.599Z,16.73
2022-11-22T11:19:43.373Z,17.77
2022-11-22T11:24:51.092Z,18.80
2022-11-22T11:30:03.717Z,19.33
2022-11-22T11:35:15.274Z,18.97
2022-11-22T11:40:30.310Z,18.83
2022-11-22T11:45:38.004Z,16.50
2022-11-22T11:50:45.988Z,17.23
2022-11-22T11:55:53.642Z,18.47
2022-11-22T12:01:02.024Z,19.73
2022-11-22T12:06:14.925Z,20.70
2022-11-22T12:11:26.647Z,20.00
2022-11-22T12:16:40.701Z,20.93
2022-11-22T12:21:57.512Z,21.37
2022-11-22T12:27:07.095Z,22.25
2022-11-22T12:32:20.109Z,19.37
2022-11-22T12:37:42.487Z,21.23
2022-11-22T12:42:58.563Z,21.90
2022-11-22T12:48:12.383Z,22.80
2022-11-22T12:53:29.041Z,19.83
2022-11-22T12:58:54.826Z,21.53
2022-11-22T13:04:12.959Z,22.00
2022-11-22T13:09:27.124Z,19.87
2022-11-22T13:14:39.991Z,18.80
2022-11-22T13:19:57.570Z,21.93
2022-11-22T13:25:11.394Z,24.27
2022-11-22T13:30:24.972Z,23.43
2022-11-22T13:35:33.393Z,27.27
2022-11-22T13:40:46.322Z,22.50
2022-11-22T13:46:02.117Z,22.07
2022-11-22T13:51:12.506Z,21.50
2022-11-22T13:56:28.918Z,20.87
2022-11-22T14:01:40.323Z,21.12
2022-11-22T14:06:52.348Z,24.70
2022-11-22T14:12:31.772Z,26.23
2022-11-22T14:17:48.018Z,26.07
2022-11-22T14:23:17.439Z,24.97
2022-11-22T14:28:53.714Z,30.87
2022-11-22T14:34:29.986Z,29.17
2022-11-22T14:39:54.681Z,37.20
2022-11-22T14:45:11.569Z,36.67
2022-11-22T14:50:22.943Z,33.02
2022-11-22T14:55:34.856Z,27.83
2022-11-22T15:00:58.224Z,26.83
2022-11-22T15:09:23.400Z,30.00
2022-11-22T15:11:48.197Z,29.90
2022-11-22T15:58:48.840Z,29.63
2022-11-22T16:03:57.650Z,30.47
2022-11-22T16:09:06.434Z,36.73
2022-11-22T16:14:34.119Z,37.83
2022-11-22T16:19:41.427Z,37.13
2022-11-22T16:24:49.334Z,40.67
2022-11-22T16:29:57.279Z,30.87
2022-11-22T16:35:29.094Z,29.13
2022-11-22T16:40:29.404Z,27.57
2022-11-22T16:45:38.796Z,29.70
2022-11-22T16:50:46.970Z,28.83
2022-11-22T16:55:55.220Z,29.93
2022-11-22T17:01:03.059Z,31.30
2022-11-22T17:06:18.901Z,27.90
2022-11-22T17:11:30.697Z,32.90
2022-11-22T17:16:40.280Z,36.33
2022-11-22T17:21:48.155Z,40.27
2022-11-22T17:26:56.504Z,44.93
2022-11-22T17:32:04.258Z,46.60
2022-11-22T17:37:15.393Z,46.93
2022-11-22T17:42:24.392Z,50.83
2022-11-22T17:47:32.699Z,50.97
2022-11-22T17:52:41.334Z,50.90
2022-11-22T17:57:55.644Z,44.10
2022-11-22T18:03:03.787Z,38.30
2022-11-22T18:08:08.433Z,36.67
2022-11-22T18:13:23.392Z,37.33
2022-11-22T18:18:55.036Z,36.27
2022-11-22T18:23:37.824Z,37.70
2022-11-22T18:29:02.468Z,32.97
2022-11-22T18:33:55.341Z,33.77
2022-11-22T18:39:03.285Z,37.23
2022-11-22T18:44:12.106Z,42.60
2022-11-22T18:49:20.950Z,48.93
2022-11-22T18:54:29.885Z,48.40
2022-11-22T18:59:38.146Z,47.77
2022-11-22T19:04:45.911Z,42.23
2022-11-22T19:09:54.629Z,42.87
2022-11-22T19:15:02.922Z,39.90
2022-11-22T19:20:39.183Z,40.27
2022-11-22T19:25:23.895Z,42.60
2022-11-22T19:30:31.771Z,43.20
2022-11-22T19:35:39.548Z,44.53
2022-11-22T19:40:49.190Z,60.03
2022-11-22T19:46:01.526Z,62.70
2022-11-22T19:51:10.715Z,56.67
2022-11-22T19:56:19.531Z,55.47
2022-11-22T20:01:28.279Z,47.83
2022-11-22T20:06:36.367Z,48.07
2022-11-22T20:11:45.653Z,45.33
2022-11-22T20:16:56.820Z,45.57
2022-11-22T20:22:05.378Z,42.07
2022-11-22T20:27:13.981Z,43.30
2022-11-22T20:32:23.276Z,45.67
2022-11-22T20:37:30.962Z,38.13
2022-11-22T20:42:40.840Z,38.27
2022-11-22T20:47:48.748Z,40.23
2022-11-22T20:52:57.246Z,39.33
2022-11-22T20:58:05.889Z,45.40
2022-11-22T21:03:13.600Z,42.30
2022-11-22T21:08:21.944Z,40.30
2022-11-22T21:13:30.794Z,42.83
2022-11-22T21:18:38.504Z,45.93
2022-11-22T21:23:48.340Z,46.80
2022-11-22T21:28:57.005Z,42.83
2022-11-22T21:34:05.223Z,40.67
2022-11-22T21:39:13.196Z,39.33
2022-11-22T21:44:20.941Z,43.20
2022-11-22T21:49:29.466Z,41.07
2022-11-22T21:54:39.180Z,36.13
2022-11-22T21:59:46.829Z,42.93
2022-11-22T22:04:55.211Z,43.73
2022-11-22T22:10:04.210Z,41.60
2022-11-22T22:15:12.702Z,39.13
2022-11-22T22:20:21.401Z,37.97
2022-11-22T22:25:30.020Z,34.73
2022-11-22T22:30:37.850Z,38.77
2022-11-22T22:35:45.483Z,35.27
2022-11-22T22:40:58.162Z,35.07
2022-11-22T22:46:12.703Z,36.60
2022-11-22T22:51:31.972Z,33.10
2022-11-22T22:56:35.204Z,38.30
2022-11-22T23:01:43.366Z,38.90
2022-11-22T23:06:52.497Z,35.63
2022-11-22T23:12:12.517Z,37.33
2022-11-22T23:17:20.881Z,34.17
2022-11-22T23:22:29.128Z,33.73
2022-11-22T23:27:38.351Z,34.67
2022-11-22T23:32:46.508Z,33.20
2022-11-22T23:37:56.040Z,34.97
2022-11-22T23:43:03.783Z,39.17
2022-11-22T23:48:11.959Z,40.30
2022-11-22T23:53:19.631Z,39.47
2022-11-22T23:58:29.092Z,39.63
